createdAt,value
2023-03-06T00:00:46.111Z,2.14
2023-03-06T00:03:19.468Z,2.11
2023-03-06T00:05:48.053Z,2.09
2023-03-06T00:08:16.387Z,2.09
2023-03-06T00:10:44.687Z,2.06
2023-03-06T00:13:16.752Z,2.02
2023-03-06T00:15:45.945Z,1.99
2023-03-06T00:18:14.792Z,1.95
2023-03-06T00:20:44.102Z,1.93
2023-03-06T00:23:12.388Z,1.90
2023-03-06T00:25:44.802Z,1.89
2023-03-06T00:28:15.893Z,1.89
2023-03-06T00:30:46.222Z,1.89
2023-03-06T00:33:14.741Z,1.89
2023-03-06T00:35:43.094Z,1.90
2023-03-06T00:38:14.930Z,1.88
2023-03-06T00:40:43.396Z,1.87
2023-03-06T00:43:12.376Z,1.86
2023-03-06T00:45:40.587Z,1.87
2023-03-06T00:48:09.831Z,1.88
2023-03-06T00:50:38.072Z,1.91
2023-03-06T00:53:06.259Z,1.93
2023-03-06T00:55:34.464Z,1.93
2023-03-06T00:58:02.853Z,1.94
2023-03-06T01:00:31.007Z,1.95
2023-03-06T01:02:59.123Z,1.96
2023-03-06T01:05:27.358Z,1.97
2023-03-06T01:07:55.552Z,1.97
2023-03-06T01:10:23.794Z,1.99
2023-03-06T01:12:52.003Z,2.00
2023-03-06T01:15:20.987Z,2.02
2023-03-06T01:17:55.506Z,2.04
2023-03-06T01:20:23.719Z,2.04
2023-03-06T01:22:51.996Z,2.04
2023-03-06T01:25:20.291Z,2.04
2023-03-06T01:27:48.418Z,2.04
2023-03-06T01:30:17.197Z,2.03
2023-03-06T01:32:45.678Z,2.04
2023-03-06T01:35:14.390Z,2.05
2023-03-06T01:37:42.608Z,2.06
2023-03-06T01:40:12.562Z,2.07
2023-03-06T01:42:42.257Z,2.08
2023-03-06T01:45:13.291Z,2.09
2023-03-06T01:47:41.511Z,2.11
2023-03-06T01:50:11.491Z,2.12
2023-03-06T01:52:46.587Z,2.13
2023-03-06T01:55:19.550Z,2.13
2023-03-06T01:57:55.707Z,2.13
2023-03-06T02:00:26.983Z,2.12
2023-03-06T02:03:22.763Z,2.13
2023-03-06T02:05:51.015Z,2.13
2023-03-06T02:08:21.881Z,2.13
2023-03-06T02:11:02.389Z,2.13
2023-03-06T02:13:31.033Z,2.14
2023-03-06T02:15:59.647Z,2.15
2023-03-06T02:18:29.599Z,2.17
2023-03-06T02:21:02.638Z,2.20
2023-03-06T02:24:13.979Z,2.22
2023-03-06T02:26:44.129Z,2.29
2023-03-06T02:29:12.597Z,2.37
2023-03-06T02:31:40.861Z,2.44
2023-03-06T02:34:15.157Z,2.47
2023-03-06T02:36:47.811Z,2.50
2023-03-06T02:39:20.339Z,2.51
2023-03-06T02:41:49.024Z,2.52
2023-03-06T02:44:17.858Z,2.53
2023-03-06T02:46:45.953Z,2.55
2023-03-06T02:49:14.411Z,2.55
2023-03-06T02:51:42.593Z,2.56
2023-03-06T02:54:11.253Z,2.57
2023-03-06T02:56:39.369Z,2.59
2023-03-06T02:59:08.627Z,2.60
2023-03-06T03:01:37.082Z,2.60
2023-03-06T03:04:05.791Z,2.62
2023-03-06T03:06:34.308Z,2.62
2023-03-06T03:09:03.458Z,2.63
2023-03-06T03:11:31.646Z,2.62
2023-03-06T03:13:59.973Z,2.64
2023-03-06T03:16:28.896Z,2.65
2023-03-06T03:18:59.338Z,2.64
2023-03-06T03:21:27.832Z,2.62
2023-03-06T03:23:56.478Z,2.62
2023-03-06T03:26:26.242Z,2.61
2023-03-06T03:29:08.428Z,2.61
2023-03-06T03:31:37.062Z,2.65
2023-03-06T03:34:05.620Z,2.67
2023-03-06T03:36:36.216Z,2.69
2023-03-06T03:39:04.988Z,2.70
2023-03-06T03:41:34.188Z,2.68
2023-03-06T03:44:04.247Z,2.67
2023-03-06T03:46:33.409Z,2.66
2023-03-06T03:49:02.165Z,2.66
2023-03-06T03:51:30.322Z,2.65
2023-03-06T03:53:59.049Z,2.65
2023-03-06T03:56:30.004Z,2.63
2023-03-06T03:59:09.249Z,2.61
2023-03-06T04:01:43.282Z,2.59
2023-03-06T04:04:11.561Z,2.56
2023-03-06T04:06:40.098Z,2.56
2023-03-06T04:09:08.576Z,2.53
2023-03-06T04:11:37.023Z,2.48
2023-03-06T04:14:05.412Z,2.45
2023-03-06T04:16:33.877Z,2.43
2023-03-06T04:19:02.072Z,2.43
2023-03-06T04:21:31.134Z,2.41
2023-03-06T04:23:59.209Z,2.40
2023-03-06T04:26:27.404Z,2.39
2023-03-06T04:28:56.355Z,2.38
2023-03-06T04:31:24.872Z,2.38
2023-03-06T04:33:53.152Z,2.37
2023-03-06T04:36:33.158Z,2.33
2023-03-06T04:39:05.846Z,2.27
2023-03-06T04:41:34.468Z,2.22
2023-03-06T04:44:03.528Z,2.18
2023-03-06T04:46:31.848Z,2.14
2023-03-06T04:49:00.755Z,2.12
2023-03-06T04:51:29.696Z,2.12
2023-03-06T04:53:57.818Z,2.12
2023-03-06T04:56:25.935Z,2.11
2023-03-06T04:58:54.004Z,2.12
2023-03-06T05:01:22.303Z,2.13
2023-03-06T05:03:50.458Z,2.12
2023-03-06T05:06:18.561Z,2.12
2023-03-06T05:08:47.366Z,2.11
2023-03-06T05:11:15.607Z,2.12
2023-03-06T05:13:43.723Z,2.12
2023-03-06T05:16:12.101Z,2.11
2023-03-06T05:18:40.252Z,2.10
2023-03-06T05:21:08.606Z,2.10
2023-03-06T05:23:38.731Z,2.08
2023-03-06T05:26:11.924Z,2.05
2023-03-06T05:28:39.982Z,2.05
2023-03-06T05:31:09.113Z,2.09
2023-03-06T05:33:37.357Z,2.15
2023-03-06T05:36:09.330Z,2.22
2023-03-06T05:38:37.549Z,2.30
2023-03-06T05:41:05.677Z,2.38
2023-03-06T05:43:33.764Z,2.50
2023-03-06T05:46:06.564Z,2.60
2023-03-06T05:48:36.391Z,2.69
2023-03-06T05:51:05.859Z,2.76
2023-03-06T05:53:34.120Z,2.83
2023-03-06T05:56:04.615Z,2.91
2023-03-06T05:58:34.752Z,3.04
2023-03-06T06:01:12.669Z,3.17
2023-03-06T06:03:41.565Z,3.30
2023-03-06T06:06:11.765Z,3.45
2023-03-06T06:08:40.569Z,3.51
2023-03-06T06:11:10.811Z,3.61
2023-03-06T06:13:40.196Z,3.75
2023-03-06T06:16:15.935Z,3.84
2023-03-06T06:18:44.387Z,3.92
2023-03-06T06:21:14.718Z,4.04
2023-03-06T06:23:42.943Z,4.16
2023-03-06T06:26:11.522Z,4.25
2023-03-06T06:28:39.727Z,4.29
2023-03-06T06:31:12.599Z,4.32
2023-03-06T06:33:41.759Z,4.37
2023-03-06T06:36:20.868Z,4.46
2023-03-06T06:38:50.103Z,4.52
2023-03-06T06:41:39.222Z,4.55
2023-03-06T06:44:08.991Z,4.63
2023-03-06T06:49:25.964Z,4.83
2023-03-06T06:51:54.065Z,4.94
2023-03-06T06:54:22.468Z,5.05
2023-03-06T06:56:50.985Z,5.21
2023-03-06T06:59:19.589Z,5.38
2023-03-06T07:01:47.816Z,5.80
2023-03-06T07:04:19.142Z,6.71
2023-03-06T07:06:47.364Z,8.02
2023-03-06T07:09:15.504Z,9.24
2023-03-06T07:11:46.462Z,10.00
2023-03-06T07:14:14.610Z,10.05
2023-03-06T07:16:42.762Z,10.04
2023-03-06T07:19:10.852Z,9.84
2023-03-06T07:21:39.081Z,9.82
2023-03-06T07:24:07.440Z,9.68
2023-03-06T07:26:35.847Z,9.36
2023-03-06T07:29:04.610Z,9.11
2023-03-06T07:31:32.946Z,8.53
2023-03-06T07:34:03.168Z,8.68
2023-03-06T07:36:34.413Z,8.87
2023-03-06T07:39:02.595Z,8.63
2023-03-06T07:41:30.771Z,8.26
2023-03-06T07:43:59.080Z,8.24
2023-03-06T07:46:27.462Z,8.16
2023-03-06T07:48:55.667Z,8.18
2023-03-06T07:51:23.850Z,8.24
2023-03-06T07:53:52.102Z,8.43
2023-03-06T07:56:20.286Z,8.41
2023-03-06T07:58:48.826Z,8.68
2023-03-06T08:01:20.058Z,9.00
2023-03-06T08:03:50.427Z,8.91
2023-03-06T08:06:24.492Z,9.10
2023-03-06T08:08:54.755Z,9.43
2023-03-06T08:11:27.417Z,9.77
2023-03-06T08:13:57.105Z,10.44
2023-03-06T08:16:27.854Z,11.37
2023-03-06T08:18:57.047Z,12.09
2023-03-06T08:21:27.863Z,13.17
2023-03-06T08:23:56.701Z,14.00
2023-03-06T08:26:31.152Z,14.11
2023-03-06T08:29:01.144Z,13.76
2023-03-06T08:31:49.782Z,13.32
2023-03-06T08:34:21.049Z,12.85
2023-03-06T08:36:49.131Z,12.55
2023-03-06T08:39:17.330Z,13.27
2023-03-06T08:41:45.684Z,13.83
2023-03-06T08:44:13.764Z,13.60
2023-03-06T08:46:42.008Z,14.20
2023-03-06T08:49:12.202Z,14.44
2023-03-06T08:51:40.414Z,14.87
2023-03-06T08:54:11.116Z,15.05
2023-03-06T08:56:39.350Z,14.27
2023-03-06T08:59:09.506Z,13.69
2023-03-06T09:01:38.824Z,14.56
2023-03-06T09:04:10.762Z,14.24
2023-03-06T09:06:42.016Z,13.66
2023-03-06T09:09:10.716Z,13.39
2023-03-06T09:11:39.520Z,13.45
2023-03-06T09:14:07.640Z,13.18
2023-03-06T09:16:35.843Z,13.63
2023-03-06T09:19:03.976Z,14.04
2023-03-06T09:21:32.249Z,14.10
2023-03-06T09:24:02.025Z,13.70
2023-03-06T09:26:43.463Z,14.26
2023-03-06T09:29:13.712Z,14.60
2023-03-06T09:31:41.764Z,14.46
2023-03-06T09:34:10.129Z,14.61
2023-03-06T09:36:54.997Z,14.86
2023-03-06T09:39:25.951Z,14.75
2023-03-06T09:41:54.674Z,15.00
2023-03-06T09:44:31.462Z,14.97
2023-03-06T09:47:33.579Z,15.14
2023-03-06T09:50:23.029Z,14.75
2023-03-06T09:53:16.508Z,15.06
2023-03-06T09:55:51.810Z,14.86
2023-03-06T09:58:26.144Z,14.19
2023-03-06T10:01:11.079Z,14.79
2023-03-06T10:03:59.367Z,14.84
2023-03-06T10:06:33.285Z,13.97
2023-03-06T10:09:19.334Z,13.81
2023-03-06T10:11:54.965Z,13.40
2023-03-06T10:15:05.890Z,13.26
2023-03-06T10:17:37.799Z,12.88
2023-03-06T10:20:20.152Z,13.11
2023-03-06T10:23:07.017Z,12.21
2023-03-06T10:25:44.339Z,11.82
2023-03-06T10:28:25.065Z,11.74
2023-03-06T10:31:01.588Z,11.70
2023-03-06T10:33:50.923Z,11.68
2023-03-06T10:36:21.358Z,11.61
2023-03-06T10:38:49.512Z,11.50
2023-03-06T10:41:36.022Z,11.37
2023-03-06T10:44:04.214Z,11.12
2023-03-06T10:46:44.766Z,11.02
2023-03-06T10:49:51.391Z,10.92
2023-03-06T10:52:23.057Z,10.80
2023-03-06T10:54:51.206Z,10.81
2023-03-06T10:57:20.908Z,10.63
2023-03-06T11:00:08.581Z,10.68
2023-03-06T11:02:41.248Z,10.79
2023-03-06T11:05:21.027Z,10.69
2023-03-06T11:08:00.511Z,10.66
2023-03-06T11:10:31.540Z,10.51
2023-03-06T11:13:07.683Z,10.49
2023-03-06T11:15:36.033Z,10.42
2023-03-06T11:18:35.835Z,10.37
2023-03-06T11:21:07.495Z,10.29
2023-03-06T11:23:43.522Z,10.21
2023-03-06T11:26:17.456Z,10.14
2023-03-06T11:29:07.354Z,10.05
2023-03-06T11:31:41.200Z,9.98
2023-03-06T11:34:12.685Z,9.92
2023-03-06T11:37:08.452Z,9.86
2023-03-06T11:39:39.848Z,9.74
2023-03-06T11:42:28.903Z,9.70
2023-03-06T11:45:26.764Z,9.65
2023-03-06T11:48:13.768Z,9.50
2023-03-06T11:50:48.241Z,9.41
2023-03-06T11:53:39.466Z,9.32
2023-03-06T11:56:16.716Z,9.27
2023-03-06T11:59:03.558Z,9.27
2023-03-06T12:01:50.872Z,9.27
2023-03-06T12:04:31.058Z,9.30
2023-03-06T12:07:24.103Z,9.23
2023-03-06T12:09:55.068Z,9.19
2023-03-06T12:12:39.828Z,9.17
2023-03-06T12:15:36.051Z,9.16
2023-03-06T12:18:52.439Z,9.14
2023-03-06T12:21:56.552Z,9.11
2023-03-06T12:24:25.970Z,9.09
2023-03-06T12:27:12.178Z,9.05
2023-03-06T12:30:11.234Z,9.17
2023-03-06T12:32:57.971Z,9.28
2023-03-06T12:35:47.927Z,9.40
2023-03-06T12:38:47.220Z,9.52
2023-03-06T12:41:21.407Z,9.62
2023-03-06T12:44:01.591Z,9.61
2023-03-06T12:46:30.721Z,9.63
2023-03-06T12:49:26.303Z,9.72
2023-03-06T12:52:00.681Z,9.82
2023-03-06T12:54:33.743Z,9.92
2023-03-06T12:57:02.083Z,9.96
2023-03-06T12:59:47.985Z,9.99
2023-03-06T13:02:16.098Z,10.02
2023-03-06T13:05:12.337Z,10.06
2023-03-06T13:07:49.403Z,10.06
2023-03-06T13:10:27.873Z,9.93
2023-03-06T13:13:01.233Z,9.94
2023-03-06T13:16:26.621Z,9.92
2023-03-06T13:19:00.797Z,9.90
2023-03-06T13:21:47.468Z,9.89
2023-03-06T13:24:25.206Z,9.90
2023-03-06T13:26:59.495Z,9.93
2023-03-06T13:29:36.584Z,9.91
2023-03-06T13:32:26.734Z,9.92
2023-03-06T13:34:54.978Z,9.95
2023-03-06T13:37:23.516Z,9.99
2023-03-06T13:39:58.482Z,10.04
2023-03-06T13:42:34.482Z,9.99
2023-03-06T13:45:27.104Z,9.92
2023-03-06T13:48:24.904Z,9.85
2023-03-06T13:50:49.736Z,9.71
2023-03-06T13:53:17.784Z,9.59
2023-03-06T13:56:08.652Z,9.51
2023-03-06T13:59:07.691Z,9.44
2023-03-06T14:02:00.764Z,9.34
2023-03-06T14:04:34.912Z,9.28
2023-03-06T14:07:23.660Z,9.09
2023-03-06T14:10:08.702Z,8.99
2023-03-06T14:12:48.862Z,8.90
2023-03-06T14:15:28.298Z,8.92
2023-03-06T14:18:01.215Z,8.91
2023-03-06T14:20:42.575Z,8.89
2023-03-06T14:23:35.606Z,8.82
2023-03-06T14:26:20.589Z,8.79
2023-03-06T14:29:02.954Z,8.73
2023-03-06T14:31:34.777Z,8.70
2023-03-06T14:34:19.966Z,8.70
2023-03-06T14:36:50.886Z,8.72
2023-03-06T14:39:41.626Z,8.71
2023-03-06T14:42:19.383Z,8.69
2023-03-06T14:44:49.944Z,8.66
2023-03-06T14:47:28.196Z,8.62
2023-03-06T14:50:19.717Z,8.60
2023-03-06T14:52:48.743Z,8.49
2023-03-06T14:55:22.549Z,8.44
2023-03-06T14:58:15.337Z,8.38
2023-03-06T15:00:47.086Z,8.30
2023-03-06T15:03:43.678Z,8.25
2023-03-06T15:06:18.079Z,8.19
2023-03-06T15:08:50.405Z,8.15
2023-03-06T15:11:18.501Z,8.07
2023-03-06T15:14:04.562Z,8.01
2023-03-06T15:16:32.846Z,7.93
2023-03-06T15:19:04.118Z,7.85
2023-03-06T15:21:38.428Z,7.77
2023-03-06T15:24:32.055Z,7.69
2023-03-06T15:27:05.130Z,7.55
2023-03-06T15:29:37.948Z,7.39
2023-03-06T15:32:34.364Z,7.29
2023-03-06T15:35:24.685Z,7.14
2023-03-06T15:37:53.003Z,7.01
2023-03-06T15:40:24.102Z,6.84
2023-03-06T15:42:52.224Z,6.71
2023-03-06T15:45:23.089Z,6.59
2023-03-06T15:47:53.057Z,6.46
2023-03-06T15:50:26.781Z,6.34
2023-03-06T15:52:55.020Z,6.18
2023-03-06T15:55:26.261Z,6.04
2023-03-06T15:57:59.896Z,5.89
2023-03-06T16:00:34.445Z,5.76
2023-03-06T16:03:03.358Z,5.63
2023-03-06T16:05:32.343Z,5.50
2023-03-06T16:08:00.605Z,5.38
2023-03-06T16:10:33.262Z,5.26
2023-03-06T16:13:08.646Z,5.14
2023-03-06T16:15:40.338Z,5.01
2023-03-06T16:18:11.909Z,4.88
2023-03-06T16:20:40.340Z,4.76
2023-03-06T16:23:10.805Z,4.65
2023-03-06T16:25:41.077Z,4.53
2023-03-06T16:28:14.840Z,4.42
2023-03-06T16:30:44.644Z,4.30
2023-03-06T16:33:14.510Z,4.20
2023-03-06T16:35:44.645Z,4.11
2023-03-06T16:38:12.788Z,4.01
2023-03-06T16:40:44.136Z,3.88
2023-03-06T16:43:13.706Z,3.75
2023-03-06T16:45:42.668Z,3.63
2023-03-06T16:48:16.367Z,3.52
2023-03-06T16:50:45.203Z,3.41
2023-03-06T16:53:14.025Z,3.31
2023-03-06T16:55:42.254Z,3.18
2023-03-06T16:58:10.325Z,3.08
2023-03-06T17:00:38.727Z,3.00
2023-03-06T17:03:07.609Z,2.91
2023-03-06T17:05:37.059Z,2.87
2023-03-06T17:08:05.635Z,2.80
2023-03-06T17:10:33.789Z,2.71
2023-03-06T17:13:02.013Z,2.57
2023-03-06T17:15:30.111Z,2.46
2023-03-06T17:17:58.266Z,2.35
2023-03-06T17:20:26.524Z,2.26
2023-03-06T17:22:55.067Z,2.18
2023-03-06T17:25:23.656Z,2.09
2023-03-06T17:27:52.275Z,2.01
2023-03-06T17:30:21.126Z,1.93
2023-03-06T17:32:49.275Z,1.87
2023-03-06T17:35:17.651Z,1.83
2023-03-06T17:37:45.793Z,1.75
2023-03-06T17:40:15.710Z,1.66
2023-03-06T17:42:46.337Z,1.58
2023-03-06T17:45:14.516Z,1.48
2023-03-06T17:47:42.697Z,1.37
2023-03-06T17:50:11.627Z,1.26
2023-03-06T17:52:40.077Z,1.15
2023-03-06T17:55:08.788Z,1.07
2023-03-06T17:57:39.605Z,0.97
2023-03-06T18:00:08.832Z,0.90
2023-03-06T18:02:45.531Z,0.82
2023-03-06T18:05:13.864Z,0.72
2023-03-06T18:07:42.044Z,0.60
2023-03-06T18:10:10.658Z,0.47
2023-03-06T18:12:38.821Z,0.38
2023-03-06T18:15:07.845Z,0.29
2023-03-06T18:17:35.991Z,0.21
2023-03-06T18:20:05.617Z,0.13
2023-03-06T18:22:33.717Z,0.01
2023-03-06T18:25:02.816Z,-0.09
2023-03-06T18:27:33.810Z,-0.17
2023-03-06T18:30:02.335Z,-0.22
2023-03-06T18:32:30.680Z,-0.27
2023-03-06T18:34:58.898Z,-0.32
2023-03-06T18:37:27.083Z,-0.35
2023-03-06T18:39:55.229Z,-0.39
2023-03-06T18:42:24.900Z,-0.42
2023-03-06T18:44:53.076Z,-0.45
2023-03-06T18:47:21.292Z,-0.47
2023-03-06T18:49:49.482Z,-0.50
2023-03-06T18:52:17.664Z,-0.53
2023-03-06T18:54:46.201Z,-0.57
2023-03-06T18:57:14.335Z,-0.61
2023-03-06T18:59:42.523Z,-0.65
2023-03-06T19:02:12.586Z,-0.69
2023-03-06T19:04:40.775Z,-0.71
2023-03-06T19:07:09.095Z,-0.73
2023-03-06T19:09:37.228Z,-0.76
2023-03-06T19:12:05.887Z,-0.80
2023-03-06T19:14:34.513Z,-0.84
2023-03-06T19:17:02.902Z,-0.86
2023-03-06T19:19:30.988Z,-0.88
2023-03-06T19:21:59.540Z,-0.89
2023-03-06T19:24:27.840Z,-0.90
2023-03-06T19:26:58.480Z,-0.90
2023-03-06T19:29:26.653Z,-0.90
2023-03-06T19:31:57.305Z,-0.91
2023-03-06T19:34:25.638Z,-0.92
2023-03-06T19:36:53.851Z,-0.95
2023-03-06T19:39:22.233Z,-0.98
2023-03-06T19:41:50.618Z,-1.01
2023-03-06T19:44:18.778Z,-1.06
2023-03-06T19:46:46.889Z,-1.09
2023-03-06T19:49:18.186Z,-1.11
2023-03-06T19:51:46.718Z,-1.13
2023-03-06T19:54:14.923Z,-1.15
2023-03-06T19:56:43.088Z,-1.18
2023-03-06T19:59:11.194Z,-1.20
2023-03-06T20:01:39.883Z,-1.23
2023-03-06T20:04:08.149Z,-1.25
2023-03-06T20:06:39.547Z,-1.28
2023-03-06T20:09:09.005Z,-1.30
2023-03-06T20:11:38.037Z,-1.31
2023-03-06T20:14:07.929Z,-1.31
2023-03-06T20:16:36.623Z,-1.31
2023-03-06T20:19:05.759Z,-1.32
2023-03-06T20:21:38.235Z,-1.31
2023-03-06T20:24:08.014Z,-1.30
2023-03-06T20:26:38.256Z,-1.30
2023-03-06T20:29:06.562Z,-1.30
2023-03-06T20:31:34.715Z,-1.30
2023-03-06T20:34:04.581Z,-1.29
2023-03-06T20:36:36.414Z,-1.26
2023-03-06T20:39:07.186Z,-1.24
2023-03-06T20:41:36.332Z,-1.22
2023-03-06T20:44:06.335Z,-1.20
2023-03-06T20:46:35.504Z,-1.19
2023-03-06T20:49:05.064Z,-1.18
2023-03-06T20:51:37.633Z,-1.16
2023-03-06T20:54:08.387Z,-1.16
2023-03-06T20:56:39.655Z,-1.15
2023-03-06T20:59:10.840Z,-1.14
2023-03-06T21:01:42.031Z,-1.14
2023-03-06T21:04:13.915Z,-1.15
2023-03-06T21:06:46.657Z,-1.15
2023-03-06T21:09:17.486Z,-1.12
2023-03-06T21:11:46.021Z,-1.09
2023-03-06T21:14:14.864Z,-1.08
2023-03-06T21:16:43.984Z,-1.08
2023-03-06T21:19:12.484Z,-1.06
2023-03-06T21:21:40.610Z,-1.06
2023-03-06T21:24:08.868Z,-1.06
2023-03-06T21:26:37.092Z,-1.07
2023-03-06T21:29:05.450Z,-1.06
2023-03-06T21:31:34.325Z,-1.06
2023-03-06T21:34:05.053Z,-1.06
2023-03-06T21:36:34.120Z,-1.06
2023-03-06T21:39:06.447Z,-1.04
2023-03-06T21:41:34.966Z,-1.02
2023-03-06T21:44:05.620Z,-1.03
2023-03-06T21:46:34.631Z,-1.00
2023-03-06T21:49:04.523Z,-0.99
2023-03-06T21:51:33.634Z,-0.96
2023-03-06T21:54:03.071Z,-0.94
2023-03-06T21:56:33.573Z,-0.93
2023-03-06T21:59:01.868Z,-0.95
2023-03-06T22:01:30.508Z,-1.01
2023-03-06T22:04:00.132Z,-1.03
2023-03-06T22:06:30.411Z,-1.03
2023-03-06T22:09:00.024Z,-1.04
2023-03-06T22:11:31.501Z,-1.07
2023-03-06T22:14:00.090Z,-1.09
2023-03-06T22:16:28.466Z,-1.09
2023-03-06T22:18:56.728Z,-1.10
2023-03-06T22:21:24.960Z,-1.12
2023-03-06T22:23:57.508Z,-1.13
2023-03-06T22:26:27.653Z,-1.14
2023-03-06T22:28:56.012Z,-1.18
2023-03-06T22:31:26.704Z,-1.22
2023-03-06T22:33:56.792Z,-1.21
2023-03-06T22:36:25.777Z,-1.18
2023-03-06T22:39:02.298Z,-1.16
2023-03-06T22:41:31.450Z,-1.14
2023-03-06T22:44:01.618Z,-1.10
2023-03-06T22:46:30.579Z,-1.07
2023-03-06T22:49:02.490Z,-1.02
2023-03-06T22:51:31.132Z,-0.98
2023-03-06T22:53:59.470Z,-0.96
2023-03-06T22:56:27.547Z,-0.94
2023-03-06T22:58:57.891Z,-0.93
2023-03-06T23:01:28.993Z,-0.94
2023-03-06T23:04:00.177Z,-0.92
2023-03-06T23:06:37.155Z,-0.87
2023-03-06T23:09:15.199Z,-0.79
2023-03-06T23:12:01.808Z,-0.68
2023-03-06T23:14:51.342Z,-0.57
2023-03-06T23:17:38.469Z,-0.45
2023-03-06T23:20:25.314Z,-0.39
2023-03-06T23:23:12.246Z,-0.33
2023-03-06T23:25:44.387Z,-0.26
2023-03-06T23:28:12.824Z,-0.20
2023-03-06T23:30:42.312Z,-0.15
2023-03-06T23:33:11.031Z,-0.10
2023-03-06T23:35:39.253Z,-0.10
2023-03-06T23:38:07.822Z,-0.10
2023-03-06T23:40:38.792Z,-0.04
2023-03-06T23:43:06.928Z,-0.05
2023-03-06T23:45:35.027Z,-0.07
2023-03-06T23:48:08.013Z,-0.05
2023-03-06T23:50:39.713Z,0.02
2023-03-06T23:53:07.854Z,0.09
2023-03-06T23:55:36.098Z,0.10
2023-03-06T23:58:04.352Z,0.11
